Time;durP1;ratioP1;P1;durP2;ratioP2;P2;SDS_P1;SDS_P2;PMS_P1;PMS_P2;Temp;Humidity;BMP_temperature;BMP_pressure;BME280_temperature;BME280_humidity;BME280_pressure;Samples;Min_cycle;Max_cycle;Signal;HPM_P1;HPM_P2
2021/01/08 00:00:57;;;;;;;13.18;9.02;;;4.40;99.90;;;;;;5050982;28;20016;-75
2021/01/08 00:03:24;;;;;;;16.60;9.32;;;4.40;99.90;;;;;;5050167;28;20609;-76
2021/01/08 00:05:50;;;;;;;16.55;9.18;;;4.40;99.90;;;;;;5049092;28;20075;-75
2021/01/08 00:08:16;;;;;;;15.13;8.43;;;4.40;99.90;;;;;;5068432;28;20021;-75
2021/01/08 00:10:41;;;;;;;12.60;8.52;;;4.50;99.90;;;;;;5040262;28;20022;-76
2021/01/08 00:13:07;;;;;;;9.98;7.10;;;4.40;99.90;;;;;;5048790;28;20502;-76
2021/01/08 00:15:32;;;;;;;12.75;7.70;;;4.40;99.90;;;;;;5043719;28;20022;-75
2021/01/08 00:17:58;;;;;;;13.18;7.38;;;4.50;99.90;;;;;;5051450;28;20047;-75
2021/01/08 00:20:24;;;;;;;10.10;7.40;;;4.40;99.90;;;;;;5046429;28;20488;-75
2021/01/08 00:22:50;;;;;;;12.57;7.25;;;4.40;99.90;;;;;;5043986;28;20025;-75
2021/01/08 00:25:15;;;;;;;11.43;6.97;;;4.50;99.90;;;;;;5036942;28;20025;-75
2021/01/08 00:27:41;;;;;;;9.30;6.85;;;4.50;99.90;;;;;;5046995;28;20064;-75
2021/01/08 00:30:08;;;;;;;9.35;6.50;;;4.50;99.90;;;;;;5044551;28;20025;-76
2021/01/08 00:32:33;;;;;;;11.00;7.80;;;4.50;99.90;;;;;;5049392;28;20024;-75
2021/01/08 00:34:59;;;;;;;14.95;7.60;;;4.50;99.90;;;;;;5040482;28;20033;-75
2021/01/08 00:37:25;;;;;;;12.18;7.47;;;4.60;99.90;;;;;;5048090;28;20084;-76
2021/01/08 00:39:51;;;;;;;11.60;7.63;;;4.50;99.90;;;;;;5047007;28;20100;-75
2021/01/08 00:42:17;;;;;;;14.13;8.85;;;4.50;99.90;;;;;;5045382;28;20112;-76
2021/01/08 00:44:43;;;;;;;12.38;8.20;;;4.60;99.90;;;;;;5047649;28;20028;-76
2021/01/08 00:47:09;;;;;;;13.13;8.32;;;4.50;99.90;;;;;;5046988;28;20067;-75
2021/01/08 00:49:35;;;;;;;14.63;8.00;;;4.60;99.90;;;;;;5047438;28;20033;-75
2021/01/08 00:52:02;;;;;;;11.18;7.80;;;4.50;99.90;;;;;;5055916;28;20443;-75
2021/01/08 00:54:28;;;;;;;10.07;7.18;;;4.40;99.90;;;;;;5045814;28;20029;-75
2021/01/08 00:56:54;;;;;;;12.90;7.55;;;4.40;99.90;;;;;;5049667;28;20074;-76
2021/01/08 00:59:20;;;;;;;13.27;7.50;;;4.40;99.90;;;;;;5050511;28;20025;-76
2021/01/08 01:01:45;;;;;;;11.40;7.35;;;4.40;99.90;;;;;;5046598;28;20024;-76
2021/01/08 01:04:11;;;;;;;12.15;8.25;;;4.40;99.90;;;;;;5046816;28;20421;-75
2021/01/08 01:06:37;;;;;;;12.73;8.23;;;4.50;99.90;;;;;;5044249;28;20025;-75
2021/01/08 01:09:04;;;;;;;14.20;8.90;;;4.50;99.90;;;;;;5047792;28;20497;-76
2021/01/08 01:11:31;;;;;;;12.85;7.68;;;4.60;99.90;;;;;;5049554;28;20024;-75
2021/01/08 01:13:57;;;;;;;10.90;7.72;;;4.60;99.90;;;;;;5046982;28;20051;-75
2021/01/08 01:16:28;;;;;;;12.27;8.00;;;4.60;99.90;;;;;;5045197;28;20029;-75
2021/01/08 01:18:56;;;;;;;10.30;7.30;;;4.60;99.90;;;;;;5049727;28;20029;-75
2021/01/08 01:21:22;;;;;;;10.27;6.88;;;4.60;99.90;;;;;;5042223;28;20026;-76
2021/01/08 01:23:50;;;;;;;10.48;7.32;;;4.60;99.90;;;;;;5044387;28;20481;-75
2021/01/08 01:26:15;;;;;;;10.02;6.72;;;4.60;99.90;;;;;;5045195;28;20021;-75
2021/01/08 01:28:41;;;;;;;10.60;6.65;;;4.60;99.90;;;;;;5050785;28;20102;-76
2021/01/08 01:31:07;;;;;;;9.50;6.60;;;4.70;99.90;;;;;;5042656;28;20136;-76
2021/01/08 01:33:33;;;;;;;9.45;6.32;;;4.70;99.90;;;;;;5044892;28;20021;-76
2021/01/08 01:36:06;;;;;;;9.63;6.65;;;4.70;99.90;;;;;;5044289;28;20519;-76
2021/01/08 01:38:31;;;;;;;8.40;5.72;;;4.70;99.90;;;;;;5060470;28;20057;-75
2021/01/08 01:40:57;;;;;;;8.38;5.85;;;4.70;99.90;;;;;;5047630;28;20048;-76
2021/01/08 01:43:23;;;;;;;6.65;5.18;;;4.70;99.90;;;;;;5046956;28;20374;-76
2021/01/08 01:45:49;;;;;;;7.20;5.22;;;4.70;99.90;;;;;;5049333;28;20385;-76
2021/01/08 01:48:15;;;;;;;6.70;5.40;;;4.70;99.90;;;;;;5048418;28;20473;-76
2021/01/08 01:50:41;;;;;;;9.13;5.82;;;4.60;99.90;;;;;;5057472;28;20088;-76
2021/01/08 01:53:07;;;;;;;7.78;5.53;;;4.60;99.90;;;;;;5050860;28;20040;-75
2021/01/08 01:55:33;;;;;;;8.90;5.50;;;4.70;99.90;;;;;;5047375;28;20666;-76
2021/01/08 01:58:01;;;;;;;7.82;5.03;;;4.70;99.90;;;;;;5037507;28;20041;-76
2021/01/08 02:00:27;;;;;;;7.93;5.35;;;4.60;99.90;;;;;;5048093;28;20021;-76
2021/01/08 02:03:23;;;;;;;6.90;5.05;;;4.60;99.90;;;;;;5045852;28;20028;-76
2021/01/08 02:05:52;;;;;;;5.10;4.55;;;4.70;99.90;;;;;;5076829;28;20022;-75
2021/01/08 02:08:22;;;;;;;7.75;5.10;;;4.70;99.90;;;;;;5044687;28;20033;-76
2021/01/08 02:11:18;;;;;;;7.38;4.25;;;4.60;99.90;;;;;;5041863;28;20427;-76
2021/01/08 02:13:46;;;;;;;5.45;4.95;;;4.70;99.90;;;;;;5040285;28;20025;-76
2021/01/08 02:16:13;;;;;;;10.60;5.30;;;4.60;99.90;;;;;;5051519;28;20021;-76
2021/01/08 02:18:41;;;;;;;4.97;4.07;;;4.60;99.90;;;;;;5043555;28;20021;-76
2021/01/08 02:21:20;;;;;;;6.57;4.82;;;4.60;99.90;;;;;;5049522;28;20490;-75
2021/01/08 02:24:13;;;;;;;5.72;4.93;;;4.60;99.90;;;;;;5035583;28;20030;-75
2021/01/08 02:26:40;;;;;;;5.32;4.72;;;4.70;99.90;;;;;;5046381;28;20384;-76
2021/01/08 02:29:06;;;;;;;5.78;4.40;;;4.60;99.90;;;;;;5040638;28;20037;-76
2021/01/08 02:31:32;;;;;;;7.40;4.63;;;4.50;99.90;;;;;;5047256;28;20029;-76
2021/01/08 02:33:58;;;;;;;5.88;4.35;;;4.60;99.90;;;;;;5064393;28;20431;-75
2021/01/08 02:36:27;;;;;;;7.35;4.47;;;4.60;99.90;;;;;;5044676;28;20097;-75
2021/01/08 02:38:54;;;;;;;4.97;4.20;;;4.60;99.90;;;;;;5054564;28;20033;-76
2021/01/08 02:41:22;;;;;;;6.70;4.68;;;4.70;99.90;;;;;;5048600;28;20028;-76
2021/01/08 02:43:50;;;;;;;4.75;3.90;;;4.70;99.90;;;;;;5050462;28;20029;-76
2021/01/08 02:46:16;;;;;;;4.70;4.07;;;4.70;99.90;;;;;;5061065;28;20431;-75
2021/01/08 02:48:41;;;;;;;4.55;4.00;;;4.70;99.90;;;;;;5049253;28;20162;-76
2021/01/08 02:51:07;;;;;;;4.60;4.20;;;4.70;99.90;;;;;;5046332;28;20104;-75
2021/01/08 02:53:36;;;;;;;5.20;4.32;;;4.70;99.90;;;;;;5053596;28;20033;-75
2021/01/08 02:56:08;;;;;;;5.97;4.30;;;4.70;99.90;;;;;;5049825;28;20351;-75
2021/01/08 02:58:35;;;;;;;5.70;4.67;;;4.70;99.90;;;;;;5055196;28;20021;-75
2021/01/08 03:01:03;;;;;;;5.72;4.30;;;4.80;99.90;;;;;;5049184;28;20082;-75
2021/01/08 03:03:31;;;;;;;6.03;4.50;;;4.80;99.90;;;;;;5042244;28;20021;-76
2021/01/08 03:05:59;;;;;;;4.53;4.13;;;4.80;99.90;;;;;;5053838;28;20029;-76
2021/01/08 03:08:26;;;;;;;5.28;4.68;;;4.70;99.90;;;;;;5045796;28;20029;-75
2021/01/08 03:10:52;;;;;;;6.70;4.70;;;4.70;99.90;;;;;;5054333;28;20032;-76
2021/01/08 03:13:18;;;;;;;5.57;3.92;;;4.70;99.90;;;;;;5044743;28;20508;-75
2021/01/08 03:15:43;;;;;;;5.97;4.15;;;4.70;99.90;;;;;;5049019;28;20075;-75
2021/01/08 03:18:10;;;;;;;5.20;4.10;;;4.80;99.90;;;;;;5040878;28;20029;-75
2021/01/08 03:20:35;;;;;;;3.95;3.40;;;4.80;99.90;;;;;;5049029;28;20029;-75
2021/01/08 03:23:04;;;;;;;4.53;4.05;;;4.70;99.90;;;;;;5046225;28;20030;-75
2021/01/08 03:25:30;;;;;;;3.75;3.20;;;4.80;99.90;;;;;;5053408;28;20094;-76
2021/01/08 03:27:56;;;;;;;4.07;3.65;;;4.80;99.90;;;;;;5051311;28;20054;-76
2021/01/08 03:30:22;;;;;;;4.88;3.25;;;4.70;99.90;;;;;;5047365;28;20104;-79
2021/01/08 03:32:48;;;;;;;4.72;2.65;;;4.70;99.90;;;;;;5050317;28;20093;-80
2021/01/08 03:35:13;;;;;;;3.35;3.05;;;4.70;99.90;;;;;;5045108;28;20056;-81
2021/01/08 03:37:39;;;;;;;2.88;2.58;;;4.60;99.90;;;;;;5047934;28;20495;-80
2021/01/08 03:40:07;;;;;;;3.38;2.60;;;4.60;99.90;;;;;;5042787;28;20034;-81
2021/01/08 03:42:33;;;;;;;3.00;2.47;;;4.60;99.90;;;;;;5047648;28;20465;-80
2021/01/08 03:44:58;;;;;;;3.00;2.70;;;4.50;99.90;;;;;;5051693;28;20025;-80
2021/01/08 03:47:24;;;;;;;2.40;2.13;;;4.40;99.90;;;;;;5044117;28;20450;-80
2021/01/08 03:49:50;;;;;;;2.78;2.38;;;4.40;99.90;;;;;;5043361;28;20056;-80
2021/01/08 03:52:15;;;;;;;4.07;2.78;;;4.40;99.90;;;;;;5081121;28;20029;-80
2021/01/08 03:54:44;;;;;;;3.15;2.53;;;4.30;99.90;;;;;;5043099;28;20057;-80
2021/01/08 03:57:11;;;;;;;4.97;3.13;;;4.40;99.90;;;;;;5034279;28;20108;-80
2021/01/08 03:59:39;;;;;;;3.63;3.13;;;4.40;99.90;;;;;;5046871;28;20021;-80
2021/01/08 04:02:05;;;;;;;3.15;2.83;;;4.40;99.90;;;;;;5043569;28;20132;-81
2021/01/08 04:04:31;;;;;;;4.07;3.15;;;4.40;99.90;;;;;;5039870;28;20540;-80
2021/01/08 04:07:00;;;;;;;4.43;3.03;;;4.50;99.90;;;;;;5047520;28;20026;-80
2021/01/08 04:09:27;;;;;;;3.88;3.38;;;4.50;99.90;;;;;;5047800;28;20078;-80
2021/01/08 04:11:53;;;;;;;6.72;4.10;;;4.60;99.90;;;;;;5042023;28;20021;-80
2021/01/08 04:14:21;;;;;;;5.40;3.70;;;4.50;99.90;;;;;;5043871;28;20446;-80
2021/01/08 04:16:49;;;;;;;5.45;3.55;;;4.60;99.90;;;;;;5060420;28;20112;-80
2021/01/08 04:19:49;;;;;;;4.20;3.80;;;4.60;99.90;;;;;;5037781;28;20425;-81
2021/01/08 04:22:17;;;;;;;6.50;4.13;;;4.60;99.90;;;;;;5033966;28;20028;-80
2021/01/08 04:24:44;;;;;;;5.28;4.30;;;4.50;99.90;;;;;;5040423;28;20013;-80
2021/01/08 04:27:10;;;;;;;6.55;4.13;;;4.40;99.90;;;;;;5051285;28;20047;-80
2021/01/08 04:29:38;;;;;;;5.45;4.43;;;4.50;99.90;;;;;;5052382;28;20029;-80
2021/01/08 04:32:05;;;;;;;5.72;4.43;;;4.40;99.90;;;;;;5053693;28;20109;-80
2021/01/08 04:34:34;;;;;;;4.78;4.10;;;4.50;99.90;;;;;;5051184;28;20017;-80
2021/01/08 04:37:00;;;;;;;6.10;4.88;;;4.50;99.90;;;;;;5051722;28;20032;-80
2021/01/08 04:39:28;;;;;;;5.55;4.68;;;4.50;99.90;;;;;;5051334;28;20017;-80
2021/01/08 04:41:57;;;;;;;7.53;4.78;;;4.50;99.90;;;;;;5051602;28;20029;-80
2021/01/08 04:44:33;;;;;;;6.93;5.15;;;4.50;99.90;;;;;;5059298;28;20489;-80
2021/01/08 04:46:58;;;;;;;6.03;4.47;;;4.50;99.90;;;;;;5038542;28;20036;-80
2021/01/08 04:49:27;;;;;;;5.75;4.57;;;4.60;99.90;;;;;;5047863;28;20033;-80
2021/01/08 04:51:56;;;;;;;7.82;5.18;;;4.50;99.90;;;;;;5033392;28;20052;-80
2021/01/08 04:54:25;;;;;;;7.30;5.47;;;4.40;99.90;;;;;;5051553;28;20048;-80
2021/01/08 04:56:55;;;;;;;8.65;5.10;;;4.50;99.90;;;;;;5042003;28;20035;-80
2021/01/08 04:59:24;;;;;;;8.55;5.30;;;4.50;99.90;;;;;;5051448;28;20021;-81
2021/01/08 05:01:50;;;;;;;7.25;5.43;;;4.50;99.90;;;;;;5034194;28;20032;-81
2021/01/08 05:04:15;;;;;;;7.15;5.65;;;4.50;99.90;;;;;;5050890;28;20017;-80
2021/01/08 05:06:41;;;;;;;8.45;5.82;;;4.50;99.90;;;;;;5049697;28;20029;-81
2021/01/08 05:09:17;;;;;;;6.65;4.85;;;4.50;99.90;;;;;;5051656;28;20075;-80
2021/01/08 05:11:45;;;;;;;6.90;5.20;;;4.60;99.90;;;;;;5043664;28;20100;-80
2021/01/08 05:14:15;;;;;;;7.28;5.72;;;4.60;99.90;;;;;;5051888;28;20033;-80
2021/01/08 05:16:41;;;;;;;8.40;5.75;;;4.50;99.90;;;;;;5053089;28;20029;-81
2021/01/08 05:19:07;;;;;;;7.47;5.97;;;4.60;99.90;;;;;;5051518;28;20021;-80
2021/01/08 05:21:36;;;;;;;9.18;6.82;;;4.60;99.90;;;;;;5043893;28;20036;-80
2021/01/08 05:24:05;;;;;;;10.70;8.55;;;4.60;99.90;;;;;;5052817;28;20021;-80
2021/01/08 05:26:31;;;;;;;9.77;6.43;;;4.60;99.90;;;;;;5050010;28;20485;-82
2021/01/08 05:28:59;;;;;;;8.95;6.57;;;4.60;99.90;;;;;;5039111;28;20032;-80
2021/01/08 05:31:33;;;;;;;11.38;7.25;;;4.70;99.90;;;;;;5048315;28;20036;-81
2021/01/08 05:33:59;;;;;;;9.65;6.97;;;4.70;99.90;;;;;;5049453;28;20531;-80
2021/01/08 05:36:26;;;;;;;12.07;7.47;;;4.80;99.90;;;;;;5044576;28;20083;-80
2021/01/08 05:38:54;;;;;;;12.43;8.15;;;4.80;99.90;;;;;;5046739;28;20025;-80
2021/01/08 05:41:22;;;;;;;10.73;7.70;;;4.80;99.90;;;;;;5052815;28;20461;-80
2021/01/08 05:43:48;;;;;;;12.63;8.25;;;4.80;99.90;;;;;;5060675;28;20481;-80
2021/01/08 05:46:40;;;;;;;12.00;8.60;;;4.70;99.90;;;;;;5052755;28;20082;-79
2021/01/08 05:49:08;;;;;;;13.23;7.75;;;4.70;99.90;;;;;;5045739;28;20057;-81
2021/01/08 05:51:39;;;;;;;12.43;8.65;;;4.70;99.90;;;;;;5051320;28;20053;-80
2021/01/08 05:54:05;;;;;;;11.63;8.13;;;4.80;99.90;;;;;;5051064;28;20497;-80
2021/01/08 05:56:38;;;;;;;19.42;9.35;;;4.80;99.90;;;;;;5044580;28;20025;-80
2021/01/08 05:59:06;;;;;;;;;;;4.80;99.90;;;;;;5043726;28;20079;-80
2021/01/08 06:01:39;;;;;;;13.38;9.15;;;4.70;99.90;;;;;;5061634;28;19905;-80
2021/01/08 06:04:08;;;;;;;13.88;9.55;;;4.80;99.90;;;;;;5040005;28;20041;-80
2021/01/08 06:06:45;;;;;;;14.10;8.73;;;4.80;99.90;;;;;;5058885;28;20032;-80
2021/01/08 06:09:22;;;;;;;15.65;10.20;;;4.90;99.90;;;;;;5049476;28;20496;-80
2021/01/08 06:12:14;;;;;;;17.02;10.77;;;4.90;99.90;;;;;;5045852;28;20481;-80
2021/01/08 06:14:47;;;;;;;18.88;11.02;;;4.80;99.90;;;;;;5052895;28;20025;-80
2021/01/08 06:17:18;;;;;;;16.95;11.38;;;4.80;99.90;;;;;;5046118;28;20032;-80
2021/01/08 06:19:48;;;;;;;18.23;11.70;;;4.80;99.90;;;;;;5047707;28;20021;-80
2021/01/08 06:22:14;;;;;;;18.80;12.50;;;4.80;99.90;;;;;;5046236;28;20025;-80
2021/01/08 06:24:53;;;;;;;19.08;12.07;;;4.80;99.90;;;;;;5056516;28;20021;-81
2021/01/08 06:27:30;;;;;;;16.33;11.13;;;4.80;99.90;;;;;;5042610;28;20073;-80
2021/01/08 06:30:07;;;;;;;14.82;10.13;;;4.80;99.90;;;;;;5050086;28;20482;-80
2021/01/08 06:33:00;;;;;;;16.92;11.65;;;4.80;99.90;;;;;;5049662;28;20096;-80
2021/01/08 06:35:45;;;;;;;19.73;12.15;;;4.70;99.90;;;;;;5038405;28;20112;-80
2021/01/08 06:38:18;;;;;;;18.85;11.60;;;4.80;99.90;;;;;;5039058;28;20017;-80
2021/01/08 06:40:50;;;;;;;17.70;11.73;;;4.90;99.90;;;;;;5055939;28;20108;-80
2021/01/08 06:43:25;;;;;;;18.23;11.50;;;4.90;99.90;;;;;;5051196;28;20087;-80
2021/01/08 06:46:01;;;;;;;22.15;13.70;;;4.90;99.90;;;;;;5038079;28;20029;-80
2021/01/08 06:48:36;;;;;;;22.02;14.00;;;4.90;99.90;;;;;;5039532;28;20738;-80
2021/01/08 06:51:08;;;;;;;22.35;13.55;;;4.90;99.90;;;;;;5046933;28;20033;-80
2021/01/08 06:53:49;;;;;;;25.83;14.95;;;4.90;99.90;;;;;;5055384;28;20377;-79
2021/01/08 06:56:49;;;;;;;21.60;13.30;;;4.90;99.90;;;;;;5055525;28;20033;-80
2021/01/08 06:59:18;;;;;;;22.83;14.63;;;4.90;99.90;;;;;;5052948;28;20040;-80
2021/01/08 07:02:20;;;;;;;27.30;14.60;;;4.90;99.90;;;;;;5050823;28;20032;-80
2021/01/08 07:04:50;;;;;;;22.08;13.93;;;5.00;99.90;;;;;;5049537;28;20163;-81
2021/01/08 07:07:26;;;;;;;25.23;14.35;;;5.00;99.90;;;;;;5048591;28;20047;-80
2021/01/08 07:09:54;;;;;;;26.13;14.07;;;5.00;99.90;;;;;;5052273;28;20029;-80
2021/01/08 07:12:30;;;;;;;22.08;12.77;;;5.00;99.90;;;;;;5040839;28;20029;-80
2021/01/08 07:14:58;;;;;;;21.17;12.30;;;4.90;99.90;;;;;;5048319;28;20036;-80
2021/01/08 07:17:32;;;;;;;18.27;11.48;;;5.00;99.90;;;;;;5043288;28;20030;-80
2021/01/08 07:20:06;;;;;;;23.77;12.55;;;4.90;99.90;;;;;;5047946;28;20074;-80
2021/01/08 07:22:39;;;;;;;19.63;12.25;;;4.90;99.90;;;;;;5036382;28;20533;-80
2021/01/08 07:25:13;;;;;;;21.80;12.45;;;5.00;99.90;;;;;;5048193;28;20033;-80
2021/01/08 07:27:45;;;;;;;18.92;11.68;;;5.00;99.90;;;;;;5052142;28;20017;-80
2021/01/08 07:30:13;;;;;;;20.30;11.02;;;5.10;99.90;;;;;;5047724;28;20057;-80
2021/01/08 07:32:43;;;;;;;16.77;10.25;;;5.10;99.90;;;;;;5048986;28;20021;-80
2021/01/08 07:35:24;;;;;;;19.25;11.07;;;5.10;99.90;;;;;;5052106;28;20079;-80
2021/01/08 07:38:14;;;;;;;21.38;10.85;;;5.00;99.90;;;;;;5041790;28;20481;-80
2021/01/08 07:40:48;;;;;;;18.95;10.98;;;5.10;99.90;;;;;;5053629;28;20086;-80
2021/01/08 07:43:17;;;;;;;22.27;12.90;;;5.10;99.90;;;;;;5052290;28;20029;-80
2021/01/08 07:45:58;;;;;;;19.48;11.80;;;5.10;99.90;;;;;;5042388;28;20045;-80
2021/01/08 07:48:26;;;;;;;25.52;12.45;;;5.10;99.90;;;;;;5069342;28;20032;-80
2021/01/08 07:51:13;;;;;;;21.42;11.02;;;5.10;99.90;;;;;;5045060;28;20030;-80
2021/01/08 07:56:15;;;;;;;19.02;11.00;;;5.20;99.90;;;;;;5044089;28;20029;-80
2021/01/08 07:58:41;;;;;;;;;;;5.20;99.90;;;;;;5040833;28;20013;-80
2021/01/08 08:01:15;;;;;;;18.85;10.18;;;5.10;99.90;;;;;;5050859;28;19909;-79
2021/01/08 08:03:41;;;;;;;17.40;10.10;;;5.20;99.90;;;;;;5053890;28;20025;-80
2021/01/08 08:06:08;;;;;;;24.33;11.35;;;5.20;99.90;;;;;;5050344;28;20032;-81
2021/01/08 08:08:45;;;;;;;19.80;11.52;;;5.20;99.90;;;;;;5041947;28;20017;-80
2021/01/08 08:11:16;;;;;;;22.00;10.85;;;5.20;99.90;;;;;;5045178;28;20025;-80
2021/01/08 08:13:45;;;;;;;18.05;10.63;;;5.20;99.90;;;;;;5053554;28;20017;-80
2021/01/08 08:16:11;;;;;;;19.17;10.80;;;5.20;99.90;;;;;;5053199;28;20473;-80
2021/01/08 08:18:53;;;;;;;21.42;10.27;;;5.20;99.90;;;;;;5052051;28;20036;-80
2021/01/08 08:21:19;;;;;;;19.65;9.35;;;5.20;99.90;;;;;;5038104;28;20571;-80
2021/01/08 08:24:00;;;;;;;16.17;9.00;;;5.20;99.90;;;;;;5077920;28;20013;-79
2021/01/08 08:26:29;;;;;;;14.85;9.02;;;5.30;99.90;;;;;;5055658;28;20012;-80
2021/01/08 08:29:10;;;;;;;15.48;9.45;;;5.20;99.90;;;;;;5051909;28;20505;-80
2021/01/08 08:31:41;;;;;;;12.13;7.38;;;5.30;99.90;;;;;;5051593;28;20059;-79
2021/01/08 08:34:09;;;;;;;13.00;7.30;;;5.30;99.90;;;;;;5051781;28;20036;-79
2021/01/08 08:36:38;;;;;;;13.60;7.38;;;5.30;99.90;;;;;;5052102;28;20029;-79
2021/01/08 08:39:05;;;;;;;14.02;7.28;;;5.30;99.90;;;;;;5046253;28;20028;-80
2021/01/08 08:41:37;;;;;;;12.32;6.72;;;5.30;99.90;;;;;;5044405;28;20036;-80
2021/01/08 08:44:06;;;;;;;12.88;6.65;;;5.30;99.90;;;;;;5043248;28;20013;-80
2021/01/08 08:46:44;;;;;;;17.92;7.82;;;5.30;99.90;;;;;;5053527;28;20070;-79
2021/01/08 08:49:13;;;;;;;13.27;7.85;;;5.40;99.90;;;;;;5053495;28;20111;-80
2021/01/08 08:51:43;;;;;;;15.45;8.70;;;5.30;99.90;;;;;;5059815;28;20035;-80
2021/01/08 08:54:16;;;;;;;15.23;8.85;;;5.30;99.90;;;;;;5047048;28;20036;-80
2021/01/08 08:57:04;;;;;;;;;;;5.30;99.90;;;;;;5062840;28;20112;-79
2021/01/08 08:59:38;;;;;;;14.80;8.40;;;5.30;99.90;;;;;;5044790;28;19909;-80
2021/01/08 09:02:30;;;;;;;15.93;8.60;;;5.40;99.90;;;;;;5047329;28;20017;-80
2021/01/08 09:05:04;;;;;;;15.33;9.53;;;5.40;99.90;;;;;;5065689;28;20036;-80
2021/01/08 09:07:40;;;;;;;15.27;9.02;;;5.40;99.90;;;;;;5044001;28;20029;-80
2021/01/08 09:10:07;;;;;;;16.05;9.05;;;5.30;99.90;;;;;;5037614;28;20485;-80
2021/01/08 09:13:03;;;;;;;14.75;8.95;;;5.40;99.90;;;;;;5048827;28;20044;-80
2021/01/08 09:15:51;;;;;;;14.23;9.13;;;5.40;99.90;;;;;;5047893;28;20032;-80
2021/01/08 09:18:42;;;;;;;20.50;11.70;;;5.40;99.90;;;;;;5047784;28;20029;-81
2021/01/08 09:21:31;;;;;;;17.75;10.02;;;5.40;99.90;;;;;;5047588;28;20036;-80
2021/01/08 09:24:03;;;;;;;19.23;10.02;;;5.40;99.90;;;;;;5047301;28;20404;-80
2021/01/08 09:26:33;;;;;;;15.48;9.73;;;5.50;99.90;;;;;;5047853;28;20388;-80
2021/01/08 09:29:00;;;;;;;18.52;10.38;;;5.50;99.90;;;;;;5048879;28;20021;-81
2021/01/08 09:31:47;;;;;;;18.63;9.63;;;5.50;99.90;;;;;;5056838;28;20033;-80
2021/01/08 09:34:19;;;;;;;16.38;9.85;;;5.50;99.90;;;;;;5051726;28;20662;-80
2021/01/08 09:36:47;;;;;;;18.48;10.82;;;5.60;99.90;;;;;;5050962;28;20116;-79
2021/01/08 09:39:14;;;;;;;18.17;9.10;;;5.60;99.90;;;;;;5066717;28;20026;-80
2021/01/08 09:41:42;;;;;;;16.88;9.27;;;5.60;99.90;;;;;;5057389;28;20023;-80
2021/01/08 09:44:12;;;;;;;17.50;10.35;;;5.70;99.90;;;;;;5047862;28;20009;-80
2021/01/08 09:46:57;;;;;;;16.38;10.00;;;5.70;99.90;;;;;;5041435;28;20032;-80
2021/01/08 09:49:36;;;;;;;20.33;11.05;;;5.70;99.90;;;;;;5056461;28;20048;-80
2021/01/08 09:52:06;;;;;;;18.02;10.82;;;5.80;99.90;;;;;;5055396;28;20029;-80
2021/01/08 09:54:50;;;;;;;20.63;11.20;;;5.80;99.90;;;;;;5065258;28;20086;-80
2021/01/08 09:57:36;;;;;;;23.05;12.43;;;5.80;99.90;;;;;;5051318;28;20032;-80
2021/01/08 10:00:06;;;;;;;21.20;12.32;;;5.80;99.90;;;;;;5050230;28;20100;-81
2021/01/08 10:02:37;;;;;;;22.30;12.52;;;5.80;99.90;;;;;;5046508;28;20017;-80
2021/01/08 10:05:23;;;;;;;23.65;13.15;;;5.80;99.90;;;;;;5070460;28;20025;-80
2021/01/08 10:07:52;;;;;;;23.60;13.00;;;5.80;99.90;;;;;;5051415;28;20029;-79
2021/01/08 10:10:27;;;;;;;19.40;11.60;;;5.90;99.90;;;;;;5055179;28;20037;-81
2021/01/08 10:12:59;;;;;;;20.42;12.70;;;5.90;99.90;;;;;;5055622;28;20029;-80
2021/01/08 10:15:39;;;;;;;21.35;12.15;;;5.90;99.90;;;;;;5050406;28;20076;-80
2021/01/08 10:18:10;;;;;;;22.77;13.40;;;5.90;99.90;;;;;;5053348;28;20380;-80
2021/01/08 10:20:52;;;;;;;26.73;14.25;;;5.90;99.90;;;;;;5061374;28;20025;-80
2021/01/08 10:23:25;;;;;;;25.83;13.43;;;5.90;99.90;;;;;;5053559;28;20146;-81
2021/01/08 10:26:08;;;;;;;25.67;14.75;;;5.90;99.90;;;;;;5048340;28;20021;-80
2021/01/08 10:28:36;;;;;;;;;;;5.90;99.90;;;;;;5043633;28;20022;-80
2021/01/08 10:31:02;;;;;;;23.83;13.48;;;6.00;99.90;;;;;;5067626;28;20278;-80
2021/01/08 10:33:29;;;;;;;25.38;13.55;;;6.00;99.90;;;;;;5052900;28;20029;-80
2021/01/08 10:35:58;;;;;;;26.30;13.93;;;6.00;99.90;;;;;;5049469;28;20032;-80
2021/01/08 10:38:25;;;;;;;23.08;12.65;;;6.00;99.90;;;;;;5048868;28;20057;-80
2021/01/08 10:40:52;;;;;;;23.40;12.10;;;6.00;99.90;;;;;;5047013;28;20029;-80
2021/01/08 10:43:18;;;;;;;22.25;12.82;;;6.00;99.90;;;;;;5053068;28;20118;-80
2021/01/08 10:45:46;;;;;;;21.38;12.88;;;6.00;99.90;;;;;;5052503;28;20056;-80
2021/01/08 10:48:12;;;;;;;20.55;11.82;;;5.90;99.90;;;;;;5049403;28;20028;-80
2021/01/08 10:50:38;;;;;;;21.65;12.57;;;5.90;99.90;;;;;;5052487;28;20033;-80
2021/01/08 10:53:04;;;;;;;19.92;11.60;;;6.00;99.90;;;;;;5037874;28;20067;-80
2021/01/08 10:55:30;;;;;;;22.55;13.40;;;6.00;99.90;;;;;;5050687;28;20025;-80
2021/01/08 10:57:56;;;;;;;20.52;12.55;;;5.90;99.90;;;;;;5048243;28;20037;-80
2021/01/08 11:00:23;;;;;;;24.00;13.10;;;6.00;99.90;;;;;;5051214;28;20535;-80
2021/01/08 11:02:48;;;;;;;20.88;11.75;;;6.00;99.90;;;;;;5057561;28;20017;-80
2021/01/08 11:05:14;;;;;;;18.23;11.70;;;6.00;99.90;;;;;;5050828;28;20021;-80
2021/01/08 11:07:41;;;;;;;22.75;12.73;;;6.00;99.90;;;;;;5053470;28;20025;-81
2021/01/08 11:10:08;;;;;;;20.77;12.25;;;6.00;99.90;;;;;;5048138;28;20033;-80
2021/01/08 11:12:34;;;;;;;18.25;11.63;;;6.00;99.90;;;;;;5057291;28;20478;-79
2021/01/08 11:15:04;;;;;;;20.80;11.82;;;6.00;99.90;;;;;;5042342;28;20025;-80
2021/01/08 11:17:30;;;;;;;28.48;14.27;;;6.00;99.90;;;;;;5054294;28;20063;-80
2021/01/08 11:20:03;;;;;;;28.35;14.05;;;6.00;99.90;;;;;;5049259;28;20048;-80
2021/01/08 11:22:32;;;;;;;21.80;12.93;;;6.00;99.90;;;;;;5050538;28;20025;-80
2021/01/08 11:25:00;;;;;;;26.95;14.23;;;6.00;99.90;;;;;;5061178;28;20028;-80
2021/01/08 11:27:29;;;;;;;23.95;14.13;;;5.90;99.90;;;;;;5046267;28;20049;-80
2021/01/08 11:29:57;;;;;;;24.50;13.32;;;6.00;99.90;;;;;;5050132;28;20096;-80
2021/01/08 11:32:23;;;;;;;24.10;13.95;;;6.10;99.90;;;;;;5043320;28;20033;-80
2021/01/08 11:34:52;;;;;;;26.13;14.52;;;6.10;99.90;;;;;;5048665;28;20100;-80
2021/01/08 11:37:20;;;;;;;25.00;13.88;;;6.10;99.90;;;;;;5052082;28;22541;-87
2021/01/08 11:39:47;;;;;;;26.40;13.85;;;6.10;99.90;;;;;;5047274;28;20021;-80
2021/01/08 11:42:12;;;;;;;23.90;14.07;;;6.10;99.90;;;;;;5047119;28;20032;-80
2021/01/08 11:44:44;;;;;;;24.90;13.20;;;6.10;99.90;;;;;;5044116;28;20027;-80
2021/01/08 11:47:15;;;;;;;26.20;14.10;;;6.10;99.90;;;;;;5053005;28;20564;-80
2021/01/08 11:49:44;;;;;;;30.17;15.20;;;6.10;99.90;;;;;;5054208;28;20025;-80
2021/01/08 11:52:12;;;;;;;25.90;14.40;;;6.20;99.90;;;;;;5052386;28;20029;-80
2021/01/08 11:54:39;;;;;;;24.92;14.20;;;6.30;99.90;;;;;;5036939;28;20374;-80
2021/01/08 11:57:05;;;;;;;26.60;14.25;;;6.20;99.90;;;;;;5034478;28;20489;-80
2021/01/08 11:59:34;;;;;;;23.10;14.35;;;6.20;99.90;;;;;;5069585;28;20013;-80
2021/01/08 12:02:08;;;;;;;24.33;14.80;;;6.30;99.90;;;;;;5051273;28;20462;-80
2021/01/08 12:04:34;;;;;;;27.27;14.32;;;6.30;99.90;;;;;;5051680;28;20021;-75
2021/01/08 12:07:01;;;;;;;27.20;14.80;;;6.40;99.90;;;;;;5050554;28;20494;-75
2021/01/08 12:09:27;;;;;;;21.02;13.48;;;6.40;99.90;;;;;;5053544;28;20033;-75
2021/01/08 12:11:57;;;;;;;21.38;12.82;;;6.30;99.90;;;;;;5044156;28;20037;-75
2021/01/08 12:14:23;;;;;;;20.02;11.77;;;6.40;99.90;;;;;;5050021;28;20021;-75
2021/01/08 12:16:49;;;;;;;21.88;13.10;;;6.30;99.90;;;;;;5048846;28;20029;-75
2021/01/08 12:19:17;;;;;;;20.48;12.80;;;6.40;99.90;;;;;;5058099;28;20029;-75
2021/01/08 12:21:47;;;;;;;17.70;11.13;;;6.40;99.90;;;;;;5043824;28;20032;-76
2021/01/08 12:24:12;;;;;;;16.73;10.52;;;6.30;99.90;;;;;;5042419;28;20014;-75
2021/01/08 12:26:38;;;;;;;16.42;10.35;;;6.30;99.90;;;;;;5050563;28;20496;-75
2021/01/08 12:29:04;;;;;;;17.10;10.43;;;6.30;99.90;;;;;;5054995;28;20358;-76
2021/01/08 12:31:30;;;;;;;16.70;9.80;;;6.30;99.90;;;;;;5046898;28;20030;-75
2021/01/08 12:33:55;;;;;;;17.00;10.35;;;6.20;99.90;;;;;;5058245;28;20075;-75
2021/01/08 12:36:22;;;;;;;15.55;9.88;;;6.20;99.90;;;;;;5048864;28;20473;-75
2021/01/08 12:38:48;;;;;;;14.32;9.65;;;6.20;99.90;;;;;;5055381;28;20488;-75
2021/01/08 12:41:15;;;;;;;14.52;9.10;;;6.30;99.90;;;;;;5049208;28;20436;-76
2021/01/08 12:43:41;;;;;;;14.18;9.75;;;6.20;99.90;;;;;;5052165;28;20016;-75
2021/01/08 12:46:07;;;;;;;15.85;9.63;;;6.20;99.90;;;;;;5053655;28;20023;-75
2021/01/08 12:48:33;;;;;;;14.60;9.48;;;6.20;99.90;;;;;;5061765;28;20039;-76
2021/01/08 12:50:58;;;;;;;15.05;8.90;;;6.20;99.90;;;;;;5060837;28;20043;-76
2021/01/08 12:53:24;;;;;;;12.77;8.90;;;6.30;99.90;;;;;;5050962;28;20537;-76
2021/01/08 12:55:50;;;;;;;11.65;8.70;;;6.30;99.90;;;;;;5065650;28;20390;-75
2021/01/08 12:58:15;;;;;;;12.27;8.98;;;6.30;99.90;;;;;;5040225;28;20056;-76
2021/01/08 13:00:41;;;;;;;11.82;8.32;;;6.30;99.90;;;;;;5044795;28;20028;-76
2021/01/08 13:03:07;;;;;;;15.07;8.38;;;6.30;99.90;;;;;;5048969;28;20044;-76
2021/01/08 13:05:33;;;;;;;11.48;8.30;;;6.30;99.90;;;;;;5048478;28;20036;-76